createdAt,value
2019-03-17T00:00:04.641Z,4.00
2019-03-17T00:02:40.634Z,4.90
2019-03-17T00:05:11.399Z,3.70
2019-03-17T00:07:43.384Z,4.07
2019-03-17T00:10:13.678Z,3.90
2019-03-17T00:12:43.911Z,4.53
2019-03-17T00:15:14.550Z,4.73
2019-03-17T00:17:44.713Z,4.03
2019-03-17T00:20:15.281Z,4.00
2019-03-17T00:22:45.710Z,3.93
2019-03-17T00:25:16.422Z,4.80
2019-03-17T00:27:50.736Z,4.63
2019-03-17T00:30:20.982Z,5.20
2019-03-17T00:32:51.536Z,3.73
2019-03-17T00:35:22.132Z,5.17
2019-03-17T00:37:52.378Z,4.43
2019-03-17T00:40:22.516Z,4.47
2019-03-17T00:42:53.175Z,4.70
2019-03-17T00:45:23.589Z,4.43
2019-03-17T00:47:54.253Z,4.40
2019-03-17T00:50:24.684Z,4.67
2019-03-17T00:52:55.055Z,4.80
2019-03-17T00:55:25.298Z,4.90
2019-03-17T00:57:55.874Z,4.10
2019-03-17T01:00:26.135Z,4.83
2019-03-17T01:02:58.485Z,4.47
2019-03-17T01:05:31.170Z,4.73
2019-03-17T01:08:00.842Z,4.83
2019-03-17T01:10:30.968Z,4.33
2019-03-17T01:13:02.769Z,4.30
2019-03-17T01:15:34.248Z,4.10
2019-03-17T01:18:04.741Z,4.50
2019-03-17T01:20:35.567Z,4.40
2019-03-17T01:23:07.848Z,3.90
2019-03-17T01:25:44.097Z,4.50
2019-03-17T01:28:16.732Z,4.07
2019-03-17T01:30:48.235Z,4.13
2019-03-17T01:33:23.163Z,4.07
2019-03-17T01:35:53.555Z,4.00
2019-03-17T01:38:24.031Z,4.17
2019-03-17T01:40:54.215Z,3.63
2019-03-17T01:43:26.168Z,4.17
2019-03-17T01:45:57.063Z,3.17
2019-03-17T01:48:27.454Z,3.63
2019-03-17T01:50:57.740Z,3.63
2019-03-17T01:53:27.850Z,3.80
2019-03-17T01:55:58.169Z,3.57
2019-03-17T01:58:28.587Z,3.80
2019-03-17T02:00:59.418Z,3.53
2019-03-17T02:03:32.797Z,4.10
2019-03-17T02:06:03.739Z,3.87
2019-03-17T02:08:34.462Z,4.23
2019-03-17T02:11:05.319Z,3.53
2019-03-17T02:13:35.721Z,4.27
2019-03-17T02:16:07.149Z,3.57
2019-03-17T02:18:37.286Z,4.60
2019-03-17T02:21:07.930Z,3.57
2019-03-17T02:23:38.136Z,3.60
2019-03-17T02:26:08.342Z,4.30
2019-03-17T02:28:38.758Z,4.40
2019-03-17T02:31:12.334Z,4.00
2019-03-17T02:33:42.856Z,3.80
2019-03-17T02:36:16.550Z,3.73
2019-03-17T02:38:50.038Z,3.27
2019-03-17T02:41:21.555Z,4.00
2019-03-17T02:43:52.439Z,3.40
2019-03-17T02:46:24.443Z,3.63
2019-03-17T02:48:54.728Z,2.97
2019-03-17T02:51:25.093Z,3.20
2019-03-17T02:53:55.601Z,2.70
2019-03-17T02:56:26.879Z,2.90
2019-03-17T02:58:57.428Z,2.57
2019-03-17T03:01:27.672Z,3.33
2019-03-17T03:04:01.758Z,3.20
2019-03-17T03:06:32.035Z,2.93
2019-03-17T03:09:02.569Z,3.50
2019-03-17T03:11:36.054Z,3.20
2019-03-17T03:14:06.676Z,3.40
2019-03-17T03:16:37.185Z,3.20
2019-03-17T03:19:07.429Z,3.40
2019-03-17T03:21:38.186Z,3.77
2019-03-17T03:24:08.645Z,3.93
2019-03-17T03:26:39.050Z,3.50
2019-03-17T03:29:09.637Z,3.43
2019-03-17T03:31:40.010Z,3.60
2019-03-17T03:34:10.292Z,3.23
2019-03-17T03:36:41.038Z,3.20
2019-03-17T03:39:11.994Z,2.97
2019-03-17T03:41:42.515Z,3.70
2019-03-17T03:44:13.118Z,3.37
2019-03-17T03:46:43.434Z,3.17
2019-03-17T03:49:13.516Z,3.10
2019-03-17T03:51:43.724Z,2.93
2019-03-17T03:54:16.106Z,2.80
2019-03-17T03:56:46.523Z,3.30
2019-03-17T03:59:17.346Z,3.10
2019-03-17T04:01:50.762Z,3.30
2019-03-17T04:04:21.403Z,2.67
2019-03-17T04:06:52.261Z,3.83
2019-03-17T04:09:22.977Z,3.20
2019-03-17T04:11:53.578Z,4.00
2019-03-17T04:14:23.811Z,3.13
2019-03-17T04:16:54.191Z,3.00
2019-03-17T04:19:24.436Z,3.60
2019-03-17T04:21:55.337Z,3.83
2019-03-17T04:24:26.095Z,3.90
2019-03-17T04:26:56.594Z,4.10
2019-03-17T04:29:27.495Z,4.00
2019-03-17T04:31:57.748Z,3.93
2019-03-17T04:34:28.226Z,3.97
2019-03-17T04:36:58.455Z,4.20
2019-03-17T04:39:28.942Z,4.30
2019-03-17T04:44:39.667Z,4.60
2019-03-17T04:47:09.790Z,4.77
2019-03-17T04:49:40.079Z,4.90
2019-03-17T04:52:10.840Z,4.93
2019-03-17T04:54:41.067Z,5.00
2019-03-17T04:57:11.581Z,5.37
2019-03-17T04:59:41.880Z,4.73
2019-03-17T05:02:13.728Z,4.70
2019-03-17T05:04:44.099Z,4.80
2019-03-17T05:07:14.775Z,5.70
2019-03-17T05:09:44.999Z,5.00
2019-03-17T05:12:15.538Z,4.90
2019-03-17T05:14:46.480Z,4.10
2019-03-17T05:17:17.137Z,4.87
2019-03-17T05:19:47.589Z,4.73
2019-03-17T05:22:18.138Z,4.53
2019-03-17T05:24:48.463Z,4.13
2019-03-17T05:27:19.222Z,4.47
2019-03-17T05:29:49.730Z,3.97
2019-03-17T05:32:20.151Z,4.40
2019-03-17T05:34:51.082Z,4.13
2019-03-17T05:37:21.790Z,3.97
2019-03-17T05:39:52.388Z,4.23
2019-03-17T05:42:23.166Z,4.40
2019-03-17T05:44:54.167Z,3.20
2019-03-17T05:47:24.868Z,3.20
2019-03-17T05:49:55.227Z,3.17
2019-03-17T05:52:26.991Z,2.83
2019-03-17T05:54:57.322Z,3.17
2019-03-17T05:57:27.493Z,3.27
2019-03-17T05:59:58.161Z,3.90
2019-03-17T06:02:29.221Z,3.70
2019-03-17T06:04:59.940Z,3.27
2019-03-17T06:07:30.847Z,4.00
2019-03-17T06:10:00.925Z,3.80
2019-03-17T06:12:31.509Z,4.80
2019-03-17T06:15:02.407Z,4.53
2019-03-17T06:17:33.446Z,4.77
2019-03-17T06:20:07.823Z,4.93
2019-03-17T06:22:38.307Z,5.87
2019-03-17T06:25:08.993Z,5.87
2019-03-17T06:27:41.190Z,5.60
2019-03-17T06:30:11.781Z,6.43
2019-03-17T06:32:42.248Z,7.03
2019-03-17T06:35:13.154Z,7.70
2019-03-17T06:37:44.602Z,8.00
2019-03-17T06:40:15.214Z,9.13
2019-03-17T06:42:45.925Z,8.17
2019-03-17T06:45:16.284Z,9.17
2019-03-17T06:47:46.771Z,7.60
2019-03-17T06:50:17.758Z,8.30
2019-03-17T06:52:48.056Z,7.97
2019-03-17T06:55:18.505Z,7.90
2019-03-17T06:57:49.295Z,7.17
2019-03-17T07:00:19.675Z,6.80
2019-03-17T07:05:30.501Z,5.97
2019-03-17T07:08:00.750Z,6.20
2019-03-17T07:10:31.031Z,6.30
2019-03-17T07:13:01.238Z,5.80
2019-03-17T07:15:34.087Z,6.53
2019-03-17T07:18:04.501Z,4.57
2019-03-17T07:20:35.022Z,2.00
2019-03-17T07:23:05.705Z,1.60
2019-03-17T07:25:39.335Z,1.50
2019-03-17T07:28:09.765Z,1.00
2019-03-17T07:30:40.040Z,1.30
2019-03-17T07:33:13.809Z,1.80
2019-03-17T07:35:46.787Z,1.60
2019-03-17T07:38:18.477Z,2.23
2019-03-17T07:40:48.946Z,1.70
2019-03-17T07:43:19.456Z,1.30
2019-03-17T07:45:49.739Z,2.03
2019-03-17T07:48:19.958Z,1.90
2019-03-17T07:50:56.370Z,1.40
2019-03-17T07:53:27.191Z,1.40
2019-03-17T07:55:57.522Z,0.97
2019-03-17T07:58:27.794Z,0.90
2019-03-17T08:00:57.946Z,1.10
2019-03-17T08:03:28.092Z,1.10
2019-03-17T08:06:02.115Z,1.07
2019-03-17T08:08:33.810Z,0.90
2019-03-17T08:11:04.213Z,1.00
2019-03-17T08:13:35.449Z,1.00
2019-03-17T08:16:06.205Z,1.10
2019-03-17T08:18:36.738Z,1.17
2019-03-17T08:21:07.023Z,1.00
2019-03-17T08:23:37.795Z,1.00
2019-03-17T08:26:11.273Z,1.17
2019-03-17T08:28:41.462Z,1.20
2019-03-17T08:31:13.579Z,1.23
2019-03-17T08:33:46.591Z,1.30
2019-03-17T08:36:17.603Z,1.40
2019-03-17T08:38:48.271Z,1.10
2019-03-17T08:41:19.815Z,1.30
2019-03-17T08:43:54.516Z,1.13
2019-03-17T08:46:25.154Z,1.10
2019-03-17T08:48:57.894Z,1.13
2019-03-17T08:51:29.044Z,1.10
2019-03-17T08:53:59.615Z,1.10
2019-03-17T08:56:29.738Z,2.00
2019-03-17T08:59:00.022Z,1.13
2019-03-17T09:01:30.107Z,1.10
2019-03-17T09:04:00.269Z,1.03
2019-03-17T09:06:30.453Z,1.17
2019-03-17T09:09:01.223Z,1.17
2019-03-17T09:11:34.226Z,0.90
2019-03-17T09:14:07.838Z,1.60
2019-03-17T09:16:38.796Z,1.20
2019-03-17T09:19:09.500Z,1.40
2019-03-17T09:21:40.967Z,1.10
2019-03-17T09:24:17.021Z,1.50
2019-03-17T09:26:45.071Z,1.07
2019-03-17T09:29:15.644Z,1.03
2019-03-17T09:31:46.081Z,1.00
2019-03-17T09:34:24.633Z,1.00
2019-03-17T09:36:56.056Z,1.30
2019-03-17T09:39:26.679Z,1.27
2019-03-17T09:41:57.290Z,1.30
2019-03-17T09:44:27.741Z,1.30
2019-03-17T09:46:59.687Z,1.47
2019-03-17T09:49:30.056Z,1.70
2019-03-17T09:52:00.339Z,1.50
2019-03-17T09:54:32.057Z,1.40
2019-03-17T09:57:02.751Z,1.30
2019-03-17T09:59:34.696Z,1.30
2019-03-17T10:02:06.427Z,1.50
2019-03-17T10:04:36.753Z,1.87
2019-03-17T10:07:07.103Z,1.50
2019-03-17T10:09:37.658Z,1.50
2019-03-17T10:12:07.809Z,1.30
2019-03-17T10:14:38.069Z,1.50
2019-03-17T10:17:11.438Z,1.87
2019-03-17T10:19:41.984Z,1.90
2019-03-17T10:22:12.694Z,1.70
2019-03-17T10:24:44.698Z,1.90
2019-03-17T10:27:19.025Z,2.40
2019-03-17T10:29:52.533Z,1.77
2019-03-17T10:32:25.918Z,2.37
2019-03-17T10:34:58.305Z,2.13
2019-03-17T10:37:29.019Z,2.27
2019-03-17T10:40:02.007Z,2.70
2019-03-17T10:42:34.194Z,2.17
2019-03-17T10:45:04.877Z,2.30
2019-03-17T10:47:35.600Z,2.37
2019-03-17T10:50:09.436Z,2.50
2019-03-17T10:52:39.826Z,2.80
2019-03-17T10:55:11.004Z,2.40
2019-03-17T10:57:43.395Z,3.43
2019-03-17T11:00:17.514Z,2.80
2019-03-17T11:02:47.818Z,2.87
2019-03-17T11:05:18.102Z,2.90
2019-03-17T11:07:48.922Z,2.47
2019-03-17T11:10:19.451Z,3.10
2019-03-17T11:12:52.247Z,2.13
2019-03-17T11:15:22.750Z,1.73
2019-03-17T11:17:54.692Z,1.77
2019-03-17T11:20:25.039Z,2.80
2019-03-17T11:22:55.320Z,3.70
2019-03-17T11:25:26.134Z,2.63
2019-03-17T11:27:56.337Z,2.20
2019-03-17T11:30:26.601Z,2.30
2019-03-17T11:32:57.860Z,2.93
2019-03-17T11:35:28.121Z,2.90
2019-03-17T11:37:58.434Z,2.03
2019-03-17T11:40:29.138Z,1.77
2019-03-17T11:42:59.330Z,1.40
2019-03-17T11:45:29.579Z,1.70
2019-03-17T11:48:01.634Z,1.40
2019-03-17T11:50:31.903Z,1.47
2019-03-17T11:53:08.354Z,1.20
2019-03-17T11:55:40.419Z,1.20
2019-03-17T11:58:13.579Z,1.27
2019-03-17T12:00:44.040Z,1.43
2019-03-17T12:03:14.326Z,1.50
2019-03-17T12:05:44.744Z,0.90
2019-03-17T12:08:15.238Z,1.17
2019-03-17T12:10:45.566Z,1.20
2019-03-17T12:13:16.499Z,1.20
2019-03-17T12:16:05.647Z,1.40
2019-03-17T12:18:35.983Z,1.13
2019-03-17T12:21:06.329Z,1.20
2019-03-17T12:23:36.823Z,1.40
2019-03-17T12:26:08.074Z,1.40
2019-03-17T12:28:38.398Z,1.13
2019-03-17T12:31:08.751Z,1.30
2019-03-17T12:33:39.317Z,0.90
2019-03-17T12:36:09.662Z,1.00
2019-03-17T12:38:40.215Z,1.23
2019-03-17T12:41:14.280Z,1.10
2019-03-17T12:43:44.523Z,0.80
2019-03-17T12:46:18.566Z,1.23
2019-03-17T12:48:49.500Z,0.97
2019-03-17T12:51:20.147Z,0.90
2019-03-17T12:53:52.297Z,1.10
2019-03-17T12:56:26.120Z,1.30
2019-03-17T12:58:56.264Z,1.40
2019-03-17T13:01:26.433Z,1.40
2019-03-17T13:03:58.514Z,1.47
2019-03-17T13:06:31.695Z,1.00
2019-03-17T13:09:02.464Z,0.80
2019-03-17T13:11:33.028Z,1.03
2019-03-17T13:14:06.942Z,0.90
2019-03-17T13:16:39.269Z,0.80
2019-03-17T13:19:12.835Z,1.20
2019-03-17T13:21:46.072Z,1.40
2019-03-17T13:24:17.905Z,1.20
2019-03-17T13:26:48.476Z,1.53
2019-03-17T13:29:18.966Z,1.10
2019-03-17T13:31:49.209Z,1.33
2019-03-17T13:34:20.964Z,1.30
2019-03-17T13:36:52.883Z,1.57
2019-03-17T13:39:23.263Z,1.17
2019-03-17T13:41:53.453Z,1.50
2019-03-17T13:44:24.070Z,1.70
2019-03-17T13:46:56.188Z,1.80
2019-03-17T13:49:26.550Z,1.60
2019-03-17T13:51:56.970Z,1.70
2019-03-17T13:54:28.779Z,1.80
2019-03-17T13:56:59.532Z,1.87
2019-03-17T13:59:31.684Z,2.07
2019-03-17T14:02:01.824Z,1.50
2019-03-17T14:04:32.303Z,2.50
2019-03-17T14:07:03.664Z,2.00
2019-03-17T14:09:35.482Z,1.40
2019-03-17T14:12:06.321Z,1.60
2019-03-17T14:14:36.606Z,1.70
2019-03-17T14:17:08.123Z,1.93
2019-03-17T14:19:39.606Z,1.50
2019-03-17T14:22:15.775Z,1.50
2019-03-17T14:24:46.464Z,1.97
2019-03-17T14:27:17.274Z,1.63
2019-03-17T14:29:47.495Z,1.77
2019-03-17T14:32:18.136Z,2.07
2019-03-17T14:34:48.373Z,1.70
2019-03-17T14:37:18.598Z,1.90
2019-03-17T14:40:05.124Z,2.23
2019-03-17T14:42:37.303Z,1.50
2019-03-17T14:45:09.827Z,1.73
2019-03-17T14:47:40.751Z,1.50
2019-03-17T14:50:17.184Z,1.00
2019-03-17T14:52:47.857Z,1.20
2019-03-17T14:55:18.497Z,1.10
2019-03-17T14:57:49.223Z,0.87
2019-03-17T15:00:23.204Z,1.07
2019-03-17T15:02:53.839Z,1.40
2019-03-17T15:05:25.401Z,1.00
2019-03-17T15:07:59.575Z,1.20
2019-03-17T15:10:29.926Z,1.10
2019-03-17T15:13:06.728Z,1.23
2019-03-17T15:18:27.326Z,1.60
2019-03-17T15:21:03.335Z,1.20
2019-03-17T15:23:34.959Z,1.30
2019-03-17T15:26:08.050Z,1.30
2019-03-17T15:28:41.409Z,1.20
2019-03-17T15:31:12.621Z,1.50
2019-03-17T15:33:43.536Z,1.70
2019-03-17T15:36:24.030Z,1.40
2019-03-17T15:38:54.518Z,1.20
2019-03-17T15:41:27.995Z,8.10
2019-03-17T15:44:00.299Z,7.10
2019-03-17T15:46:30.848Z,1.40
2019-03-17T15:49:01.392Z,1.70
2019-03-17T15:51:33.550Z,1.70
2019-03-17T15:54:12.665Z,1.70
2019-03-17T15:56:43.430Z,1.70
2019-03-17T15:59:13.999Z,1.43
2019-03-17T16:01:44.329Z,1.60
2019-03-17T16:04:16.021Z,1.50
2019-03-17T16:06:47.425Z,1.40
2019-03-17T16:09:23.835Z,1.27
2019-03-17T16:11:56.773Z,1.73
2019-03-17T16:14:27.064Z,1.67
2019-03-17T16:16:57.685Z,1.30
2019-03-17T16:19:29.821Z,1.40
2019-03-17T16:22:00.378Z,1.40
2019-03-17T16:24:32.674Z,1.87
2019-03-17T16:27:09.222Z,2.00
2019-03-17T16:29:41.553Z,2.47
2019-03-17T16:32:11.843Z,1.60
2019-03-17T16:34:47.231Z,1.67
2019-03-17T16:37:17.578Z,1.60
2019-03-17T16:39:48.221Z,2.17
2019-03-17T16:42:22.135Z,1.50
2019-03-17T16:44:52.355Z,1.00
2019-03-17T16:47:23.329Z,1.10
2019-03-17T16:49:58.938Z,1.30
2019-03-17T16:52:29.131Z,1.03
2019-03-17T16:54:59.637Z,0.90
2019-03-17T16:57:30.660Z,1.20
2019-03-17T17:00:23.906Z,1.17
2019-03-17T17:02:55.195Z,1.30
2019-03-17T17:05:29.694Z,1.27
2019-03-17T17:08:00.054Z,1.23
2019-03-17T17:10:33.897Z,1.10
2019-03-17T17:13:05.262Z,1.43
2019-03-17T17:15:48.501Z,1.30
2019-03-17T17:18:10.719Z,1.27
2019-03-17T17:20:41.545Z,1.10
2019-03-17T17:23:11.853Z,2.30
2019-03-17T17:25:42.480Z,1.10
2019-03-17T17:28:12.847Z,1.40
2019-03-17T17:30:45.918Z,1.30
2019-03-17T17:33:16.553Z,1.30
2019-03-17T17:35:47.485Z,1.70
2019-03-17T17:38:24.342Z,1.20
2019-03-17T17:40:54.686Z,1.50
2019-03-17T17:43:25.028Z,1.50
2019-03-17T17:46:02.962Z,1.30
2019-03-17T17:48:36.634Z,1.33
2019-03-17T17:51:07.505Z,1.33
2019-03-17T17:53:37.940Z,1.47
2019-03-17T17:56:08.779Z,1.27
2019-03-17T17:58:39.007Z,1.47
2019-03-17T18:01:12.935Z,1.43
2019-03-17T18:03:51.470Z,1.43
2019-03-17T18:06:19.211Z,1.53
2019-03-17T18:08:50.288Z,1.70
2019-03-17T18:11:24.004Z,1.50
2019-03-17T18:13:55.759Z,1.60
2019-03-17T18:16:26.154Z,1.63
2019-03-17T18:19:00.073Z,1.70
2019-03-17T18:21:36.502Z,1.67
2019-03-17T18:24:08.964Z,1.70
2019-03-17T18:26:39.405Z,1.80
2019-03-17T18:29:09.587Z,1.47
2019-03-17T18:31:44.935Z,1.83
2019-03-17T18:34:15.153Z,1.50
2019-03-17T18:36:50.142Z,1.60
2019-03-17T18:39:25.096Z,1.90
2019-03-17T18:41:56.094Z,2.10
2019-03-17T18:44:26.334Z,1.90
2019-03-17T18:46:56.697Z,2.00
2019-03-17T18:49:29.297Z,2.23
2019-03-17T18:51:59.928Z,2.07
2019-03-17T18:54:30.646Z,2.23
2019-03-17T18:57:03.968Z,2.40
2019-03-17T18:59:36.611Z,1.90
2019-03-17T19:02:08.098Z,2.20
2019-03-17T19:04:38.454Z,1.63
2019-03-17T19:07:09.381Z,1.60
2019-03-17T19:09:42.659Z,1.83
2019-03-17T19:12:12.939Z,1.70
2019-03-17T19:14:45.791Z,1.70
2019-03-17T19:17:16.048Z,2.03
2019-03-17T19:19:46.200Z,2.43
2019-03-17T19:22:17.169Z,2.37
2019-03-17T19:24:47.702Z,1.80
2019-03-17T19:27:24.461Z,2.10
2019-03-17T19:29:54.993Z,2.03
2019-03-17T19:32:27.149Z,2.40
2019-03-17T19:34:57.833Z,1.80
2019-03-17T19:37:28.222Z,1.90
2019-03-17T19:40:04.075Z,1.47
2019-03-17T19:42:34.592Z,1.47
2019-03-17T19:45:08.716Z,1.90
2019-03-17T19:47:41.107Z,1.80
2019-03-17T19:50:12.302Z,1.87
2019-03-17T19:52:42.552Z,1.80
2019-03-17T19:55:13.267Z,1.50
2019-03-17T19:57:45.198Z,1.30
2019-03-17T20:00:17.317Z,1.43
2019-03-17T20:02:48.058Z,1.80
2019-03-17T20:05:18.813Z,1.63
2019-03-17T20:07:49.715Z,1.57
2019-03-17T20:10:25.364Z,1.70
2019-03-17T20:12:56.983Z,1.83
2019-03-17T20:15:34.244Z,1.50
2019-03-17T20:18:06.299Z,1.97
2019-03-17T20:20:39.474Z,1.80
2019-03-17T20:23:10.454Z,2.10
2019-03-17T20:25:42.493Z,2.20
2019-03-17T20:28:13.769Z,2.10
2019-03-17T20:30:45.442Z,1.70
2019-03-17T20:33:24.512Z,1.60
2019-03-17T20:35:56.546Z,1.90
2019-03-17T20:38:31.357Z,2.13
2019-03-17T20:41:01.544Z,1.70
2019-03-17T20:43:37.623Z,1.80
2019-03-17T20:46:07.985Z,1.70
2019-03-17T20:48:39.898Z,2.20
2019-03-17T20:51:10.797Z,1.50
2019-03-17T20:53:41.639Z,2.07
2019-03-17T20:56:16.894Z,2.13
2019-03-17T20:58:47.444Z,1.77
2019-03-17T21:01:19.503Z,2.20
2019-03-17T21:03:51.412Z,1.83
2019-03-17T21:06:21.871Z,1.60
2019-03-17T21:08:52.164Z,1.83
2019-03-17T21:11:22.350Z,1.50
2019-03-17T21:13:55.750Z,2.33
2019-03-17T21:16:29.206Z,1.53
2019-03-17T21:18:59.679Z,1.80
2019-03-17T21:21:33.170Z,2.27
2019-03-17T21:24:03.731Z,2.00
2019-03-17T21:26:34.030Z,1.70
2019-03-17T21:29:04.103Z,1.50
2019-03-17T21:31:36.114Z,1.80
2019-03-17T21:34:07.630Z,2.10
2019-03-17T21:36:42.020Z,1.47
2019-03-17T21:39:17.856Z,2.53
2019-03-17T21:41:51.750Z,2.00
2019-03-17T21:44:22.383Z,2.00
2019-03-17T21:46:53.776Z,1.90
2019-03-17T21:49:29.202Z,2.20
2019-03-17T21:52:02.663Z,1.43
2019-03-17T21:54:35.830Z,2.07
2019-03-17T21:57:06.239Z,1.90
2019-03-17T21:59:39.247Z,1.67
2019-03-17T22:02:13.119Z,1.90
2019-03-17T22:04:44.455Z,1.67
2019-03-17T22:07:15.116Z,2.10
2019-03-17T22:09:45.520Z,2.07
2019-03-17T22:12:15.851Z,2.10
2019-03-17T22:14:47.263Z,1.90
2019-03-17T22:17:17.444Z,2.37
2019-03-17T22:19:50.141Z,1.97
2019-03-17T22:22:23.246Z,1.80
2019-03-17T22:24:53.543Z,1.80
2019-03-17T22:27:23.831Z,2.20
2019-03-17T22:29:54.502Z,1.80
2019-03-17T22:32:25.071Z,2.00
2019-03-17T22:34:55.229Z,1.60
2019-03-17T22:37:25.586Z,1.80
2019-03-17T22:39:55.842Z,1.77
2019-03-17T22:42:26.226Z,1.70
2019-03-17T22:44:56.903Z,2.50
2019-03-17T22:47:30.098Z,2.00
2019-03-17T22:50:03.691Z,2.00
2019-03-17T22:52:34.640Z,1.80
2019-03-17T22:55:08.881Z,1.80
2019-03-17T22:57:40.650Z,1.83
2019-03-17T23:00:14.128Z,2.20
2019-03-17T23:02:44.543Z,2.30
2019-03-17T23:05:18.520Z,2.00
2019-03-17T23:07:48.943Z,2.30
2019-03-17T23:10:19.115Z,2.07
2019-03-17T23:12:49.426Z,2.40
2019-03-17T23:15:19.745Z,2.87
2019-03-17T23:17:50.587Z,2.70
2019-03-17T23:20:21.013Z,2.90
2019-03-17T23:22:51.587Z,2.30
2019-03-17T23:25:21.698Z,2.80
2019-03-17T23:27:51.970Z,2.60
2019-03-17T23:30:22.431Z,2.50
2019-03-17T23:32:53.294Z,2.90
2019-03-17T23:35:23.882Z,2.70
2019-03-17T23:37:54.351Z,2.70
2019-03-17T23:40:24.791Z,3.00
2019-03-17T23:42:55.089Z,3.30
2019-03-17T23:45:25.470Z,2.70
2019-03-17T23:47:55.970Z,3.33
2019-03-17T23:50:26.093Z,3.90
2019-03-17T23:52:56.403Z,3.53
2019-03-17T23:55:26.639Z,4.67
2019-03-17T23:57:57.139Z,4.00
